Alameda, Canada
Current Conditions -  °F | °C
As of 1:00 AM on Monday 22 Dec 2014 (Local Time) from CYEN Reporting Station
Moderate Fog Moderate Fog  
Wind Chill: 20°   Ceiling: 200
Heat Index: 28°   Visibility: 0.5mi
Dew Point: 28°   Wind: 8mph
Humidity: 100%   Direction: 100°E
Pressure: 29.41"   Gusts: NA
Location:  49.27°N, 102.28°W
Report Text: CYEN 220700Z 10007KT 1/2SM FZFG VV002 M02/M02 A2941 RMK FG8SLP986
Loading
Personal Weather Stations






























Interactive Weather Map New forecast layout! Learn more

10-Day Weather Forecast

Advertisements
Track Severe Weather on mobile